createdAt,value
2022-12-17T00:01:53.397Z,79.20
2022-12-17T00:04:39.325Z,78.70
2022-12-17T00:07:24.619Z,78.80
2022-12-17T00:10:10.051Z,78.80
2022-12-17T00:12:56.501Z,78.80
2022-12-17T00:15:42.923Z,78.80
2022-12-17T00:18:28.825Z,78.80
2022-12-17T00:21:16.094Z,78.80
2022-12-17T00:24:02.045Z,78.80
2022-12-17T00:26:47.389Z,78.80
2022-12-17T00:29:32.798Z,78.80
2022-12-17T00:32:18.180Z,78.80
2022-12-17T00:35:03.686Z,78.80
2022-12-17T00:37:49.633Z,78.80
2022-12-17T00:40:34.820Z,78.80
2022-12-17T00:43:20.082Z,78.80
2022-12-17T00:46:05.669Z,78.80
2022-12-17T00:48:50.965Z,78.90
2022-12-17T00:51:37.387Z,78.80
2022-12-17T00:54:22.701Z,78.80
2022-12-17T00:57:07.884Z,78.70
2022-12-17T00:59:53.209Z,78.70
2022-12-17T01:02:41.660Z,78.50
2022-12-17T01:05:27.240Z,78.50
2022-12-17T01:08:12.545Z,78.50
2022-12-17T01:10:57.821Z,78.60
2022-12-17T01:13:43.238Z,78.60
2022-12-17T01:16:31.272Z,78.50
2022-12-17T01:19:17.548Z,79.10
2022-12-17T01:22:03.804Z,78.40
2022-12-17T01:24:49.132Z,78.40
2022-12-17T01:27:34.316Z,78.50
2022-12-17T01:30:19.593Z,78.60
2022-12-17T01:33:04.788Z,79.10
2022-12-17T01:35:50.139Z,79.80
2022-12-17T01:38:37.949Z,78.60
2022-12-17T01:41:24.247Z,78.70
2022-12-17T01:46:58.842Z,78.60
2022-12-17T01:49:46.095Z,78.50
2022-12-17T01:52:33.864Z,78.50
2022-12-17T01:55:21.394Z,78.50
2022-12-17T01:58:06.637Z,78.40
2022-12-17T02:03:38.652Z,78.60
2022-12-17T02:06:44.828Z,78.70
2022-12-17T02:09:44.334Z,78.70
2022-12-17T02:12:41.356Z,78.60
2022-12-17T02:18:16.738Z,78.70
2022-12-17T02:21:07.413Z,78.60
2022-12-17T02:24:10.871Z,78.50
2022-12-17T02:27:00.544Z,78.60
2022-12-17T02:29:48.876Z,78.50
2022-12-17T02:32:36.323Z,78.50
2022-12-17T02:35:28.806Z,78.40
2022-12-17T02:38:13.911Z,78.40
2022-12-17T02:41:00.601Z,78.30
2022-12-17T02:43:46.908Z,78.90
2022-12-17T02:46:32.213Z,78.10
2022-12-17T02:49:17.617Z,78.20
2022-12-17T02:52:02.937Z,78.10
2022-12-17T02:54:51.634Z,78.20
2022-12-17T02:57:42.234Z,78.20
2022-12-17T03:00:29.262Z,78.30
2022-12-17T03:03:14.489Z,78.30
2022-12-17T03:05:59.861Z,78.30
2022-12-17T03:08:45.183Z,78.40
2022-12-17T03:11:30.493Z,78.50
2022-12-17T03:14:18.887Z,78.60
2022-12-17T03:17:11.843Z,78.70
2022-12-17T03:19:57.225Z,78.70
2022-12-17T03:25:28.180Z,78.60
2022-12-17T03:28:13.455Z,78.60
2022-12-17T03:30:58.884Z,79.30
2022-12-17T03:33:54.865Z,79.20
2022-12-17T03:39:25.945Z,78.70
2022-12-17T03:42:11.199Z,78.70
2022-12-17T03:44:56.469Z,78.60
2022-12-17T03:47:41.730Z,78.60
2022-12-17T03:53:13.080Z,78.50
2022-12-17T03:58:44.125Z,78.40
2022-12-17T04:04:15.183Z,78.40
2022-12-17T04:07:00.219Z,78.40
2022-12-17T04:12:31.453Z,78.40
2022-12-17T04:15:16.746Z,78.30
2022-12-17T04:18:02.136Z,78.30
2022-12-17T04:20:49.865Z,78.30
2022-12-17T04:23:42.671Z,78.40
2022-12-17T04:31:59.825Z,78.40
2022-12-17T04:34:45.244Z,78.40
2022-12-17T04:37:30.577Z,78.40
2022-12-17T04:40:15.932Z,78.40
2022-12-17T04:43:01.278Z,78.40
2022-12-17T04:45:48.148Z,78.40
2022-12-17T04:48:33.581Z,78.40
2022-12-17T04:51:18.800Z,78.50
2022-12-17T04:54:04.052Z,78.50
2022-12-17T04:56:49.362Z,78.60
2022-12-17T04:59:34.536Z,78.60
2022-12-17T05:02:19.826Z,78.60
2022-12-17T05:05:05.000Z,78.60
2022-12-17T05:07:50.381Z,78.60
2022-12-17T05:13:21.558Z,78.60
2022-12-17T05:18:52.722Z,78.60
2022-12-17T05:21:38.107Z,78.70
2022-12-17T05:24:23.654Z,78.70
2022-12-17T05:27:08.901Z,78.60
2022-12-17T05:29:54.288Z,79.20
2022-12-17T05:35:25.636Z,78.60
2022-12-17T05:38:10.908Z,78.60
2022-12-17T05:40:59.270Z,78.60
2022-12-17T05:43:44.572Z,78.60
2022-12-17T05:46:29.917Z,78.60
2022-12-17T05:49:15.339Z,78.60
2022-12-17T05:52:00.637Z,78.70
2022-12-17T05:54:45.869Z,78.70
2022-12-17T05:57:31.167Z,78.70
2022-12-17T06:00:16.309Z,78.70
2022-12-17T06:03:01.764Z,78.70
2022-12-17T06:05:46.877Z,78.70
2022-12-17T06:08:32.230Z,78.70
2022-12-17T06:11:18.480Z,78.70
2022-12-17T06:14:05.428Z,78.70
2022-12-17T06:16:50.713Z,78.70
2022-12-17T06:19:37.631Z,78.70
2022-12-17T06:22:22.911Z,78.70
2022-12-17T06:25:08.207Z,78.80
2022-12-17T06:30:40.783Z,78.70
2022-12-17T06:33:28.151Z,78.70
2022-12-17T06:36:22.240Z,78.80
2022-12-17T06:39:07.757Z,78.70
2022-12-17T06:41:53.035Z,78.80
2022-12-17T06:44:46.564Z,79.30
2022-12-17T06:50:17.759Z,78.70
2022-12-17T06:53:03.012Z,78.70
2022-12-17T06:55:48.417Z,78.70
2022-12-17T06:58:33.688Z,78.70
2022-12-17T07:01:19.311Z,78.70
2022-12-17T07:04:04.735Z,78.70
2022-12-17T07:06:49.993Z,78.60
2022-12-17T07:09:35.350Z,78.60
2022-12-17T07:12:20.551Z,77.10
2022-12-17T07:15:05.903Z,66.50
2022-12-17T07:17:51.152Z,83.10
2022-12-17T07:20:36.612Z,82.40
2022-12-17T07:23:22.003Z,82.70
2022-12-17T07:26:07.115Z,80.00
2022-12-17T07:31:38.417Z,79.00
2022-12-17T07:34:23.875Z,79.50
2022-12-17T07:37:09.109Z,78.80
2022-12-17T07:39:54.448Z,78.70
2022-12-17T07:42:39.727Z,78.80
2022-12-17T07:45:25.655Z,78.80
2022-12-17T07:48:12.784Z,78.80
2022-12-17T07:51:01.089Z,78.90
2022-12-17T07:53:46.490Z,78.80
2022-12-17T07:56:31.806Z,78.90
2022-12-17T07:59:17.136Z,78.90
2022-12-17T08:02:02.770Z,79.00
2022-12-17T08:04:47.968Z,78.90
2022-12-17T08:07:33.089Z,79.00
2022-12-17T08:10:18.364Z,79.00
2022-12-17T08:13:20.934Z,79.10
2022-12-17T08:16:06.916Z,79.10
2022-12-17T08:18:52.428Z,79.20
2022-12-17T08:21:37.726Z,79.20
2022-12-17T08:24:43.125Z,79.30
2022-12-17T08:30:13.897Z,79.30
2022-12-17T08:32:59.177Z,79.20
2022-12-17T08:38:30.306Z,79.20
2022-12-17T08:41:17.761Z,79.20
2022-12-17T08:44:03.125Z,60.90
2022-12-17T08:46:48.402Z,71.40
2022-12-17T08:49:33.700Z,79.70
2022-12-17T08:52:19.044Z,83.50
2022-12-17T08:55:04.431Z,80.40
2022-12-17T08:57:49.537Z,77.50
2022-12-17T09:00:35.005Z,75.80
2022-12-17T09:03:22.052Z,74.70
2022-12-17T09:06:07.280Z,74.20
2022-12-17T09:08:52.591Z,73.80
2022-12-17T09:11:37.874Z,73.70
2022-12-17T09:14:23.217Z,73.90
2022-12-17T09:17:08.545Z,73.90
2022-12-17T09:19:53.705Z,73.80
2022-12-17T09:22:38.903Z,74.00
2022-12-17T09:25:24.293Z,74.10
2022-12-17T09:28:09.749Z,74.30
2022-12-17T09:30:55.001Z,74.70
2022-12-17T09:33:40.658Z,74.80
2022-12-17T09:36:26.557Z,74.90
2022-12-17T09:39:11.865Z,75.00
2022-12-17T09:42:02.814Z,75.10
2022-12-17T09:45:00.164Z,75.10
2022-12-17T09:48:05.232Z,75.10
2022-12-17T09:50:50.737Z,75.20
2022-12-17T09:53:54.356Z,75.30
2022-12-17T09:56:42.723Z,75.30
2022-12-17T09:59:45.252Z,75.20
2022-12-17T10:02:44.541Z,75.40
2022-12-17T10:05:42.957Z,75.50
2022-12-17T10:08:40.121Z,75.50
2022-12-17T10:11:37.667Z,75.50
2022-12-17T10:14:40.804Z,75.60
2022-12-17T10:20:48.396Z,55.20
2022-12-17T10:23:42.800Z,67.10
2022-12-17T10:26:28.327Z,88.90
2022-12-17T10:29:24.479Z,88.70
2022-12-17T10:32:09.717Z,91.50
2022-12-17T10:35:03.372Z,92.50
2022-12-17T10:37:52.618Z,94.10
2022-12-17T10:40:46.143Z,93.90
2022-12-17T10:43:48.952Z,93.50
2022-12-17T10:46:44.497Z,93.90
2022-12-17T10:49:35.098Z,94.10
2022-12-17T10:52:42.870Z,94.70
2022-12-17T10:55:44.426Z,94.70
2022-12-17T10:58:47.986Z,94.90
2022-12-17T11:01:42.084Z,95.20
2022-12-17T11:04:49.651Z,94.50
2022-12-17T11:07:46.101Z,93.90
2022-12-17T11:10:40.092Z,93.80
2022-12-17T11:13:38.430Z,93.00
2022-12-17T11:16:31.661Z,93.10
2022-12-17T11:19:28.774Z,92.60
2022-12-17T11:22:19.521Z,93.00
2022-12-17T11:25:55.971Z,93.00
2022-12-17T11:28:43.909Z,93.70
2022-12-17T11:31:32.045Z,94.10
2022-12-17T11:34:36.838Z,94.20
2022-12-17T11:37:32.144Z,93.70
2022-12-17T11:40:29.468Z,93.50
2022-12-17T11:43:24.111Z,94.40
2022-12-17T11:46:18.047Z,94.20
2022-12-17T11:49:15.571Z,94.70
2022-12-17T11:52:17.626Z,94.50
2022-12-17T11:55:30.634Z,94.60
2022-12-17T11:58:21.475Z,94.20
2022-12-17T12:01:29.617Z,94.10
2022-12-17T12:04:43.869Z,93.60
2022-12-17T12:08:01.374Z,93.50
2022-12-17T12:11:05.958Z,93.20
2022-12-17T12:14:09.486Z,93.30
2022-12-17T12:17:38.217Z,93.90
2022-12-17T12:20:49.475Z,94.10
2022-12-17T12:24:01.545Z,93.90
2022-12-17T12:26:58.503Z,94.10
2022-12-17T12:30:04.106Z,93.70
2022-12-17T12:33:16.840Z,93.10
2022-12-17T12:36:02.230Z,93.00
2022-12-17T12:38:56.125Z,93.20
2022-12-17T12:42:01.643Z,93.10
2022-12-17T12:45:12.535Z,92.90
2022-12-17T12:48:25.341Z,92.40
2022-12-17T12:51:43.371Z,92.20
2022-12-17T12:54:45.002Z,93.80
2022-12-17T12:57:50.538Z,94.10
2022-12-17T13:00:53.270Z,94.00
2022-12-17T13:03:50.608Z,93.00
2022-12-17T13:06:38.973Z,93.10
2022-12-17T13:09:34.135Z,92.90
2022-12-17T13:12:04.338Z,93.50
2022-12-17T13:14:52.249Z,93.30
2022-12-17T13:17:24.948Z,93.60
2022-12-17T13:19:57.274Z,92.70
2022-12-17T13:22:24.668Z,92.70
2022-12-17T13:24:53.920Z,93.00
2022-12-17T13:27:35.699Z,92.90
2022-12-17T13:30:17.151Z,93.50
2022-12-17T13:33:04.633Z,93.10
2022-12-17T13:35:40.017Z,93.10
2022-12-17T13:38:36.049Z,93.20
2022-12-17T13:41:10.770Z,93.00
2022-12-17T13:43:53.760Z,93.20
2022-12-17T13:46:26.310Z,93.10
2022-12-17T13:48:58.788Z,93.10
2022-12-17T13:51:28.675Z,93.10
2022-12-17T13:54:00.839Z,92.80
2022-12-17T13:56:36.280Z,93.00
2022-12-17T13:59:09.068Z,93.10
2022-12-17T14:01:46.139Z,93.30
2022-12-17T14:04:20.403Z,93.00
2022-12-17T14:06:48.189Z,93.30
2022-12-17T14:09:18.342Z,93.40
2022-12-17T14:12:03.671Z,93.40
2022-12-17T14:14:33.622Z,93.30
2022-12-17T14:17:00.611Z,93.50
2022-12-17T14:19:28.788Z,93.50
2022-12-17T14:21:55.989Z,93.90
2022-12-17T14:24:27.095Z,93.70
2022-12-17T14:26:57.189Z,93.70
2022-12-17T14:29:25.877Z,93.80
2022-12-17T14:32:00.945Z,93.90
2022-12-17T14:34:27.870Z,93.90
2022-12-17T14:37:03.443Z,94.00
2022-12-17T14:39:32.374Z,94.10
2022-12-17T14:42:25.842Z,94.00
2022-12-17T14:44:55.096Z,94.50
2022-12-17T14:47:32.095Z,94.20
2022-12-17T14:50:26.167Z,94.30
2022-12-17T14:52:57.941Z,94.40
2022-12-17T14:55:37.312Z,94.50
2022-12-17T14:58:11.188Z,94.50
2022-12-17T15:01:08.986Z,94.40
2022-12-17T15:03:41.458Z,94.60
2022-12-17T15:06:11.134Z,94.80
2022-12-17T15:08:42.545Z,94.80
2022-12-17T15:11:12.616Z,94.90
2022-12-17T15:13:39.194Z,94.90
2022-12-17T15:16:06.083Z,95.00
2022-12-17T15:18:32.735Z,95.00
2022-12-17T15:21:00.182Z,95.10
2022-12-17T15:23:26.796Z,95.30
2022-12-17T15:25:54.079Z,95.40
2022-12-17T15:28:21.448Z,95.30
2022-12-17T15:30:49.180Z,95.40
2022-12-17T15:33:16.551Z,95.40
2022-12-17T15:35:43.503Z,95.40
2022-12-17T15:38:11.095Z,95.40
2022-12-17T15:40:38.035Z,95.80
2022-12-17T15:43:13.673Z,95.80
2022-12-17T15:45:44.083Z,95.70
2022-12-17T15:48:12.889Z,95.80
2022-12-17T15:50:39.636Z,95.80
2022-12-17T15:53:06.534Z,95.80
2022-12-17T15:55:33.093Z,96.10
2022-12-17T15:57:59.767Z,96.80
2022-12-17T16:00:26.459Z,96.60
2022-12-17T16:02:53.247Z,96.40
2022-12-17T16:05:20.864Z,96.50
2022-12-17T16:07:47.556Z,96.40
2022-12-17T16:10:14.759Z,96.50
2022-12-17T16:12:41.409Z,96.40
2022-12-17T16:15:09.776Z,96.30
2022-12-17T16:17:36.847Z,96.70
2022-12-17T16:20:05.513Z,96.60
2022-12-17T16:22:32.338Z,96.60
2022-12-17T16:24:58.906Z,96.70
2022-12-17T16:27:25.528Z,96.90
2022-12-17T16:29:52.072Z,97.20
2022-12-17T16:32:18.733Z,97.20
2022-12-17T16:34:45.416Z,97.40
2022-12-17T16:37:12.370Z,97.10
2022-12-17T16:39:38.957Z,96.90
2022-12-17T16:42:05.556Z,96.90
2022-12-17T16:44:32.113Z,97.40
2022-12-17T16:46:59.777Z,97.20
2022-12-17T16:49:26.766Z,97.60
2022-12-17T16:51:54.862Z,97.70
2022-12-17T16:54:24.105Z,98.00
2022-12-17T16:56:50.945Z,97.90
2022-12-17T16:59:17.705Z,97.90
2022-12-17T17:01:47.030Z,97.70
2022-12-17T17:04:15.809Z,97.60
2022-12-17T17:06:48.372Z,97.60
2022-12-17T17:09:15.951Z,97.40
2022-12-17T17:11:45.816Z,97.30
2022-12-17T17:14:16.566Z,97.30
2022-12-17T17:16:43.141Z,97.60
2022-12-17T17:19:09.736Z,97.90
2022-12-17T17:21:38.689Z,98.40
2022-12-17T17:24:20.107Z,98.00
2022-12-17T17:26:48.327Z,98.10
2022-12-17T17:29:14.995Z,98.50
2022-12-17T17:34:28.099Z,98.10
2022-12-17T17:36:54.633Z,98.00
2022-12-17T17:39:21.177Z,98.00
2022-12-17T17:41:47.871Z,97.90
2022-12-17T17:44:15.967Z,98.10
2022-12-17T17:46:42.590Z,97.90
2022-12-17T17:49:09.784Z,97.90
2022-12-17T17:54:27.636Z,98.00
2022-12-17T17:56:54.190Z,98.00
2022-12-17T17:59:24.243Z,98.00
2022-12-17T18:01:55.918Z,98.10
2022-12-17T18:04:24.157Z,98.10
2022-12-17T18:07:23.258Z,98.00
2022-12-17T18:09:37.276Z,98.00
2022-12-17T18:12:24.035Z,98.10
2022-12-17T18:15:14.184Z,98.20
2022-12-17T18:17:37.140Z,98.20
2022-12-17T18:20:04.280Z,98.30
2022-12-17T18:22:30.810Z,98.10
2022-12-17T18:24:57.406Z,98.00
2022-12-17T18:27:23.940Z,98.10
2022-12-17T18:29:50.466Z,98.50
2022-12-17T18:32:16.984Z,98.70
2022-12-17T18:34:43.653Z,98.80
2022-12-17T18:37:10.266Z,98.90
2022-12-17T18:39:36.872Z,99.00
2022-12-17T18:42:21.857Z,99.30
2022-12-17T18:44:48.389Z,99.90
2022-12-17T18:47:15.015Z,99.90
2022-12-17T18:49:41.683Z,99.90
2022-12-17T18:52:13.182Z,99.90
2022-12-17T18:54:43.328Z,99.90
2022-12-17T18:57:09.867Z,99.90
2022-12-17T18:59:37.302Z,99.90
2022-12-17T19:02:04.038Z,99.90
2022-12-17T19:04:32.708Z,99.90
2022-12-17T19:06:59.444Z,99.90
2022-12-17T19:09:29.977Z,99.90
2022-12-17T19:11:58.040Z,99.90
2022-12-17T19:14:25.602Z,99.90
2022-12-17T19:16:54.164Z,99.90
2022-12-17T19:19:21.542Z,99.90
2022-12-17T19:21:48.664Z,99.90
2022-12-17T19:24:17.344Z,99.90
2022-12-17T19:26:44.825Z,99.90
2022-12-17T19:29:13.157Z,99.90
2022-12-17T19:31:39.990Z,99.90
2022-12-17T19:34:09.556Z,99.90
2022-12-17T19:36:37.323Z,99.90
2022-12-17T19:39:07.579Z,99.90
2022-12-17T19:41:34.765Z,99.90
2022-12-17T19:44:06.940Z,99.90
2022-12-17T19:46:34.976Z,99.90
2022-12-17T19:49:02.951Z,99.90
2022-12-17T19:51:31.061Z,99.90
2022-12-17T19:54:01.804Z,99.90
2022-12-17T19:56:33.387Z,99.90
2022-12-17T19:59:02.607Z,99.90
2022-12-17T20:01:31.747Z,99.90
2022-12-17T20:03:59.060Z,99.90
2022-12-17T20:06:31.055Z,99.90
2022-12-17T20:09:02.241Z,99.90
2022-12-17T20:11:35.288Z,99.90
2022-12-17T20:14:11.011Z,99.90
2022-12-17T20:16:58.111Z,99.90
2022-12-17T20:19:32.541Z,99.90
2022-12-17T20:22:01.190Z,99.90
2022-12-17T20:24:31.637Z,99.90
2022-12-17T20:26:59.744Z,99.90
2022-12-17T20:29:27.192Z,99.90
2022-12-17T20:31:54.422Z,99.90
2022-12-17T20:34:21.438Z,99.90
2022-12-17T20:36:48.547Z,99.90
2022-12-17T20:39:15.484Z,99.90
2022-12-17T20:41:43.572Z,99.90
2022-12-17T20:44:14.467Z,99.90
2022-12-17T20:46:42.565Z,99.90
2022-12-17T20:49:11.618Z,99.90
2022-12-17T20:51:38.325Z,99.90
2022-12-17T20:54:05.240Z,99.90
2022-12-17T20:56:34.657Z,99.90
2022-12-17T20:59:04.997Z,99.90
2022-12-17T21:01:34.285Z,99.90
2022-12-17T21:04:01.920Z,99.90
2022-12-17T21:06:37.092Z,99.90
2022-12-17T21:09:04.542Z,99.90
2022-12-17T21:11:33.277Z,99.90
2022-12-17T21:14:04.119Z,99.90
2022-12-17T21:16:31.819Z,99.90
2022-12-17T21:19:00.287Z,99.90
2022-12-17T21:21:29.922Z,99.90
2022-12-17T21:23:57.033Z,99.90
2022-12-17T21:26:26.494Z,99.90
2022-12-17T21:28:55.358Z,99.80
2022-12-17T21:31:33.530Z,99.80
2022-12-17T21:34:03.162Z,99.80
2022-12-17T21:36:32.098Z,99.90
2022-12-17T21:38:59.516Z,99.90
2022-12-17T21:41:28.833Z,99.80
2022-12-17T21:43:57.749Z,99.70
2022-12-17T21:46:26.949Z,99.70
2022-12-17T21:48:55.181Z,99.70
2022-12-17T21:51:22.004Z,99.70
2022-12-17T21:53:53.658Z,99.70
2022-12-17T21:56:20.446Z,99.80
2022-12-17T21:58:48.238Z,99.70
2022-12-17T22:01:21.893Z,99.70
2022-12-17T22:03:53.146Z,99.80
2022-12-17T22:06:23.948Z,99.80
2022-12-17T22:08:58.869Z,99.80
2022-12-17T22:11:33.107Z,99.80
2022-12-17T22:14:07.380Z,99.80
2022-12-17T22:16:38.950Z,99.80
2022-12-17T22:19:07.096Z,99.80
2022-12-17T22:21:35.720Z,99.80
2022-12-17T22:24:02.759Z,99.80
2022-12-17T22:26:30.018Z,99.80
2022-12-17T22:28:56.616Z,99.80
2022-12-17T22:31:43.865Z,99.80
2022-12-17T22:34:58.857Z,99.80
2022-12-17T22:40:47.350Z,99.90
2022-12-17T22:41:39.556Z,99.80
2022-12-17T22:44:37.552Z,99.80
2022-12-17T22:45:39.246Z,99.80
2022-12-17T22:48:07.307Z,99.80
2022-12-17T22:50:36.086Z,99.70
2022-12-17T22:53:06.910Z,99.60
2022-12-17T22:55:34.415Z,99.70
2022-12-17T22:58:01.681Z,99.80
2022-12-17T23:00:33.913Z,99.90
2022-12-17T23:03:01.071Z,99.90
2022-12-17T23:05:28.505Z,99.90
2022-12-17T23:07:56.351Z,99.90
2022-12-17T23:10:24.564Z,99.90
2022-12-17T23:12:52.705Z,99.90
2022-12-17T23:15:20.637Z,99.90
2022-12-17T23:17:47.476Z,99.90
2022-12-17T23:20:14.789Z,99.80
2022-12-17T23:22:41.826Z,99.80
2022-12-17T23:25:09.365Z,99.80
2022-12-17T23:27:35.940Z,99.80
2022-12-17T23:30:02.598Z,99.80
2022-12-17T23:32:29.279Z,99.80
2022-12-17T23:34:55.858Z,99.70
2022-12-17T23:37:22.509Z,99.60
2022-12-17T23:39:49.126Z,99.60
2022-12-17T23:42:15.943Z,99.50
2022-12-17T23:44:42.474Z,99.60
2022-12-17T23:47:09.029Z,99.60
2022-12-17T23:49:35.550Z,99.60
2022-12-17T23:52:02.197Z,99.60
2022-12-17T23:54:28.874Z,99.60
2022-12-17T23:56:55.511Z,99.40
2022-12-17T23:59:22.043Z,99.60
